OPA Logo
 
ASOS:
At:2020.09.27 0915 UTC
Wind:210° @ 3KT
Viz: 10 mile(s)
Sky: clear
Temp: 42 F (6 C)
DewP: 39 F (4 C)
RH: 86%
Baro: 30.37 in.
ob: KBDN 270915Z AUTO 21003KT 10SM CLR 06/04 A3037 RMK AO2

ASOS: KRDM
At:2020.09.27 0856 UTC
Wind:180° @ 4KT
Viz: 10 mile(s)
Sky: clear
Temp: 41.0 F (5.0 C)
DewP: 37.0 F (2.8 C)
RH: 85%
Baro: 30.34 in.
ob: KRDM 270856Z AUTO 18004KT 10SM CLR 05/03 A3034 RMK AO2 SLP271 T00500028 53014
Apache-SSL Logo

Valid HTML 4.01!

Central Oregon OPA Chapter

Calendar


Other Calendar pages

Oregon Pilots Association Events Calendar

Washington Pilots Association Events


Web page by: gem@rellim.com